Time;durP1;ratioP1;P1;durP2;ratioP2;P2;SDS_P1;SDS_P2;PMS_P1;PMS_P2;Temp;Humidity;BMP_temperature;BMP_pressure;BME280_temperature;BME280_humidity;BME280_pressure;Samples;Min_cycle;Max_cycle;Signal;HPM_P1;HPM_P2
2022/07/22 00:02:20;;;;;;;;;;;;;;;25.45;60.59;99788.56;4473036;32;19980;-89
2022/07/22 00:04:45;;;;;;;;;;;;;;;25.47;60.59;99786.59;4487363;32;19972;-89
2022/07/22 00:07:10;;;;;;;;;;;;;;;25.48;60.59;99780.28;4485853;32;20253;-89
2022/07/22 00:09:36;;;;;;;;;;;;;;;25.35;60.58;99783.25;4486093;32;20020;-88
2022/07/22 00:12:01;;;;;;;;;;;;;;;25.35;60.58;99778.78;4486145;32;20085;-88
2022/07/22 00:14:26;;;;;;;;;;;;;;;25.43;60.58;99785.19;4486247;32;20036;-89
2022/07/22 00:16:51;;;;;;;;;;;;;;;25.50;60.58;99775.62;4473028;32;19995;-88
2022/07/22 00:19:16;;;;;;;;;;;;;;;25.46;60.59;99776.91;4472494;32;22503;-89
2022/07/22 00:21:42;;;;;;;;;;;;;;;25.44;60.58;99773.56;4486000;32;20095;-88
2022/07/22 00:24:07;;;;;;;;;;;;;;;25.47;60.59;99776.78;4472408;32;22983;-89
2022/07/22 00:26:32;;;;;;;;;;;;;;;25.25;60.57;99774.41;4486046;32;20018;-89
2022/07/22 00:28:57;;;;;;;;;;;;;;;25.35;60.58;99784.09;4472799;32;19977;-89
2022/07/22 00:31:23;;;;;;;;;;;;;;;25.31;60.58;99790.66;4486108;32;19988;-88
2022/07/22 00:33:48;;;;;;;;;;;;;;;25.21;60.57;99800.50;4487068;32;24590;-89
2022/07/22 00:36:13;;;;;;;;;;;;;;;25.02;60.56;99798.69;4472731;32;19985;-90
2022/07/22 00:38:38;;;;;;;;;;;;;;;25.16;60.57;99797.44;4487010;32;19980;-88
2022/07/22 00:41:04;;;;;;;;;;;;;;;24.73;60.54;99806.62;4486802;32;26049;-89
2022/07/22 00:43:47;;;;;;;;;;;;;;;24.82;60.54;99806.75;4475218;32;20000;-89
2022/07/22 00:46:13;;;;;;;;;;;;;;;25.00;60.56;99805.13;4489667;32;19957;-89
2022/07/22 00:48:38;;;;;;;;;;;;;;;24.86;60.55;99806.38;4490108;32;28573;-89
2022/07/22 00:51:03;;;;;;;;;;;;;;;24.98;60.56;99810.56;4498807;32;23948;-89
2022/07/22 00:53:28;;;;;;;;;;;;;;;25.00;60.56;99815.78;4476703;32;20010;-88
2022/07/22 00:55:53;;;;;;;;;;;;;;;24.56;60.53;99823.25;4485416;32;27610;-89
2022/07/22 00:58:21;;;;;;;;;;;;;;;24.56;60.53;99817.94;4471896;32;25539;-89
2022/07/22 01:00:47;;;;;;;;;;;;;;;24.48;60.53;99815.12;4486914;31;19992;-89
2022/07/22 01:03:13;;;;;;;;;;;;;;;24.62;60.54;99817.41;4486949;32;20376;-89
2022/07/22 01:05:38;;;;;;;;;;;;;;;24.53;60.54;99812.03;4486911;31;19973;-88
2022/07/22 01:08:05;;;;;;;;;;;;;;;24.66;60.54;99812.66;4486862;32;20020;-89
2022/07/22 01:10:30;;;;;;;;;;;;;;;24.54;60.53;99817.22;4485678;32;19961;-89
2022/07/22 01:12:55;;;;;;;;;;;;;;;24.39;60.53;99815.94;4486164;32;26588;-89
2022/07/22 01:15:20;;;;;;;;;;;;;;;24.25;60.51;99821.59;4484880;32;24418;-89
2022/07/22 01:17:46;;;;;;;;;;;;;;;24.36;60.53;99816.19;4486758;32;20022;-89
2022/07/22 01:20:11;;;;;;;;;;;;;;;24.31;60.52;99810.44;4486096;32;27139;-89
2022/07/22 01:22:36;;;;;;;;;;;;;;;24.18;60.51;99816.81;4485287;32;20020;-89
2022/07/22 01:25:01;;;;;;;;;;;;;;;24.29;60.52;99809.72;4484974;32;23880;-89
2022/07/22 01:27:27;;;;;;;;;;;;;;;24.36;60.53;99800.22;4472336;32;20028;-89
2022/07/22 01:29:53;;;;;;;;;;;;;;;24.33;60.52;99801.34;4485515;32;19980;-89
2022/07/22 01:32:18;;;;;;;;;;;;;;;24.47;60.53;99805.44;4484854;32;23847;-89
2022/07/22 01:34:43;;;;;;;;;;;;;;;24.32;60.52;99801.47;4485819;32;29665;-89
2022/07/22 01:37:09;;;;;;;;;;;;;;;24.43;60.53;99804.88;4485230;32;20261;-89
2022/07/22 01:39:34;;;;;;;;;;;;;;;24.42;60.52;99807.69;4486567;31;19968;-89
2022/07/22 01:41:59;;;;;;;;;;;;;;;24.41;60.52;99808.66;4484694;32;25068;-88
2022/07/22 01:44:24;;;;;;;;;;;;;;;24.36;60.53;99805.53;4471504;32;30354;-89
2022/07/22 01:46:50;;;;;;;;;;;;;;;24.25;60.51;99802.97;4485817;32;29419;-89
2022/07/22 01:49:16;;;;;;;;;;;;;;;24.10;60.51;99800.66;4485767;32;27406;-89
2022/07/22 01:51:41;;;;;;;;;;;;;;;23.98;60.51;99795.59;4472183;32;20011;-89
2022/07/22 01:54:06;;;;;;;;;;;;;;;24.00;60.51;99798.97;4485330;32;20023;-89
2022/07/22 01:56:32;;;;;;;;;;;;;;;23.93;60.50;99801.31;4471545;32;19989;-89
2022/07/22 01:58:57;;;;;;;;;;;;;;;23.98;60.51;99801.75;4471522;32;25360;-89
2022/07/22 02:01:24;;;;;;;;;;;;;;;23.96;60.51;99795.72;4484454;32;28293;-89
2022/07/22 02:03:49;;;;;;;;;;;;;;;23.89;60.51;99799.88;4485385;32;20699;-89
2022/07/22 02:06:14;;;;;;;;;;;;;;;23.77;60.49;99808.91;4470950;32;19999;-89
2022/07/22 02:08:39;;;;;;;;;;;;;;;24.04;60.51;99811.00;4486066;32;27578;-89
2022/07/22 02:11:05;;;;;;;;;;;;;;;23.84;60.50;99810.91;4471673;32;26657;-89
2022/07/22 02:13:30;;;;;;;;;;;;;;;23.92;60.50;99809.44;4485357;32;20364;-88
2022/07/22 02:15:55;;;;;;;;;;;;;;;23.93;60.50;99811.94;4471997;32;20006;-89
2022/07/22 02:18:20;;;;;;;;;;;;;;;23.85;60.49;99811.75;4472099;32;20005;-89
2022/07/22 02:20:46;;;;;;;;;;;;;;;24.04;60.51;99809.19;4485205;32;20020;-89
2022/07/22 02:23:11;;;;;;;;;;;;;;;24.04;60.51;99822.47;4472306;32;20003;-89
2022/07/22 02:25:36;;;;;;;;;;;;;;;23.67;60.49;99827.47;4472665;32;20012;-89
2022/07/22 02:28:02;;;;;;;;;;;;;;;23.71;60.48;99817.41;4486002;32;21822;-89
2022/07/22 02:30:27;;;;;;;;;;;;;;;23.62;60.48;99823.50;4487893;32;20317;-89
2022/07/22 02:32:52;;;;;;;;;;;;;;;23.71;60.49;99822.75;4488662;32;20509;-89
2022/07/22 02:35:17;;;;;;;;;;;;;;;23.81;60.50;99828.94;4492602;32;19988;-88
2022/07/22 02:37:42;;;;;;;;;;;;;;;23.38;60.48;99827.22;4477946;32;33483;-89
2022/07/22 02:40:08;;;;;;;;;;;;;;;23.49;60.49;99829.00;4471787;32;19996;-89
2022/07/22 02:42:33;;;;;;;;;;;;;;;23.64;60.49;99822.41;4484462;32;20304;-89
2022/07/22 02:44:59;;;;;;;;;;;;;;;23.39;60.47;99830.72;4471414;32;20007;-88
2022/07/22 02:47:24;;;;;;;;;;;;;;;23.35;60.48;99834.63;4484438;32;19968;-89
2022/07/22 02:49:49;;;;;;;;;;;;;;;23.20;60.46;99831.44;4470658;32;27748;-89
2022/07/22 02:52:14;;;;;;;;;;;;;;;22.90;60.45;99825.00;4484368;32;19999;-89
2022/07/22 02:54:39;;;;;;;;;;;;;;;22.76;60.44;99835.91;4470766;32;23659;-89
2022/07/22 02:57:05;;;;;;;;;;;;;;;22.82;60.45;99829.28;4470599;32;27385;-89
2022/07/22 02:59:30;;;;;;;;;;;;;;;22.81;60.44;99836.38;4470842;32;20313;-89
2022/07/22 03:01:55;;;;;;;;;;;;;;;22.87;60.45;99837.69;4483961;32;19981;-89
2022/07/22 03:04:20;;;;;;;;;;;;;;;22.91;60.45;99834.66;4471104;32;20031;-89
2022/07/22 03:06:46;;;;;;;;;;;;;;;22.80;60.45;99837.31;4483649;32;22610;-89
2022/07/22 03:09:11;;;;;;;;;;;;;;;22.93;60.45;99831.88;4470990;32;20012;-89
2022/07/22 03:11:36;;;;;;;;;;;;;;;22.70;60.45;99839.03;4470884;32;20030;-89
2022/07/22 03:14:01;;;;;;;;;;;;;;;23.06;60.46;99831.72;4484087;32;20014;-89
2022/07/22 03:16:27;;;;;;;;;;;;;;;22.88;60.45;99834.06;4471097;32;20016;-89
2022/07/22 03:18:52;;;;;;;;;;;;;;;22.94;60.45;99837.06;4472820;32;23941;-89
2022/07/22 03:21:17;;;;;;;;;;;;;;;22.67;60.44;99840.13;4472886;32;20002;-89
2022/07/22 03:23:42;;;;;;;;;;;;;;;22.62;60.43;99837.00;4486176;32;19977;-89
2022/07/22 03:26:07;;;;;;;;;;;;;;;22.71;60.45;99845.16;4473086;32;20020;-89
2022/07/22 03:28:33;;;;;;;;;;;;;;;22.85;60.44;99843.13;4485970;32;20321;-89
2022/07/22 03:30:58;;;;;;;;;;;;;;;23.07;60.46;99846.69;4486256;32;20362;-89
2022/07/22 03:33:23;;;;;;;;;;;;;;;22.87;60.46;99848.31;4486102;32;20000;-89
2022/07/22 03:35:48;;;;;;;;;;;;;;;22.81;60.45;99854.97;4472884;32;20019;-89
2022/07/22 03:38:14;;;;;;;;;;;;;;;22.98;60.46;99856.25;4472836;32;20291;-89
2022/07/22 03:40:39;;;;;;;;;;;;;;;22.80;60.45;99850.59;4472614;32;20652;-88
2022/07/22 03:43:04;;;;;;;;;;;;;;;22.76;60.44;99859.78;4486125;32;20007;-89
2022/07/22 03:45:29;;;;;;;;;;;;;;;22.73;60.44;99859.19;4472845;32;20334;-89
2022/07/22 03:47:57;;;;;;;;;;;;;;;22.82;60.45;99858.47;4487270;32;20291;-89
2022/07/22 03:50:22;;;;;;;;;;;;;;;22.96;60.45;99858.19;4486528;32;20345;-89
2022/07/22 03:52:48;;;;;;;;;;;;;;;23.01;60.45;99855.16;4486507;32;19990;-89
2022/07/22 03:55:13;;;;;;;;;;;;;;;22.81;60.44;99860.28;4486984;32;21977;-89
2022/07/22 03:57:38;;;;;;;;;;;;;;;22.84;60.44;99857.38;4473039;32;20037;-89
2022/07/22 04:00:03;;;;;;;;;;;;;;;22.91;60.45;99857.72;4472868;32;20006;-89
2022/07/22 04:02:29;;;;;;;;;;;;;;;23.02;60.45;99851.53;4486155;32;19994;-89
2022/07/22 04:04:54;;;;;;;;;;;;;;;22.99;60.45;99849.13;4486249;32;20298;-89
2022/07/22 04:07:19;;;;;;;;;;;;;;;23.25;60.48;99846.00;4486317;32;19984;-89
2022/07/22 04:09:44;;;;;;;;;;;;;;;23.20;60.46;99844.72;4473134;32;19992;-89
2022/07/22 04:12:10;;;;;;;;;;;;;;;23.15;60.46;99845.06;4473456;32;19999;-89
2022/07/22 04:14:35;;;;;;;;;;;;;;;23.31;60.47;99844.66;4487299;32;22880;-89
2022/07/22 04:17:00;;;;;;;;;;;;;;;23.34;60.47;99844.41;4475415;32;20000;-88
2022/07/22 04:19:25;;;;;;;;;;;;;;;23.47;60.47;99849.53;4490767;32;23134;-89
2022/07/22 04:21:50;;;;;;;;;;;;;;;23.39;60.47;99850.16;4479326;32;19989;-89
2022/07/22 04:24:16;;;;;;;;;;;;;;;23.46;60.48;99846.03;4486500;32;20000;-89
2022/07/22 04:26:41;;;;;;;;;;;;;;;23.72;60.49;99835.91;4472469;32;20033;-90
2022/07/22 04:29:07;;;;;;;;;;;;;;;23.97;60.50;99842.63;4484796;32;26994;-89
2022/07/22 04:31:33;;;;;;;;;;;;;;;24.11;60.52;99834.25;4485780;32;20367;-89
2022/07/22 04:33:58;;;;;;;;;;;;;;;24.38;60.53;99838.22;4485872;32;20471;-89
2022/07/22 04:36:23;;;;;;;;;;;;;;;24.38;60.53;99832.87;4487234;31;19988;-89
2022/07/22 04:38:52;;;;;;;;;;;;;;;24.45;60.53;99834.03;4492293;32;24771;-87
2022/07/22 04:41:18;;;;;;;;;;;;;;;24.53;60.54;99833.34;4494539;32;20378;-88
2022/07/22 04:43:43;;;;;;;;;;;;;;;24.75;60.54;99841.09;4498015;32;19945;-89
2022/07/22 04:46:08;;;;;;;;;;;;;;;24.86;60.55;99838.31;4493277;32;19980;-89
2022/07/22 04:48:33;;;;;;;;;;;;;;;24.71;60.54;99839.69;4485409;32;28659;-89
2022/07/22 04:51:00;;;;;;;;;;;;;;;24.83;60.54;99835.06;4473389;32;19976;-89
2022/07/22 04:53:25;;;;;;;;;;;;;;;24.93;60.55;99839.44;4473463;32;20003;-89
2022/07/22 04:55:50;;;;;;;;;;;;;;;25.25;60.57;99833.87;4472892;32;19992;-89
2022/07/22 04:58:17;;;;;;;;;;;;;;;25.20;60.56;99838.78;4486545;32;19976;-89
2022/07/22 05:00:42;;;;;;;;;;;;;;;25.27;60.57;99831.06;4472940;32;19981;-89
2022/07/22 05:03:08;;;;;;;;;;;;;;;25.31;60.57;99830.63;4473207;32;20025;-89
2022/07/22 05:05:34;;;;;;;;;;;;;;;25.69;60.58;99828.94;4486283;32;20088;-89
2022/07/22 05:07:59;;;;;;;;;;;;;;;25.57;60.58;99828.25;4494651;31;19989;-88
2022/07/22 05:10:24;;;;;;;;;;;;;;;25.69;60.58;99831.63;4477871;32;19980;-89
2022/07/22 05:12:49;;;;;;;;;;;;;;;25.66;60.59;99835.38;4490134;32;27994;-88
2022/07/22 05:15:15;;;;;;;;;;;;;;;25.82;60.59;99834.81;4493284;32;19976;-89
2022/07/22 05:17:40;;;;;;;;;;;;;;;25.89;60.60;99846.59;4493607;32;20017;-88
2022/07/22 05:20:22;;;;;;;;;;;;;;;25.94;60.61;99841.66;4497624;31;22500;-89
2022/07/22 05:23:11;;;;;;;;;;;;;;;26.16;60.62;99844.94;4498843;31;20001;-88
2022/07/22 05:25:36;;;;;;;;;;;;;;;26.31;60.63;99840.81;4490114;32;19988;-89
2022/07/22 05:28:02;;;;;;;;;;;;;;;26.55;60.64;99838.50;4485663;32;20280;-89
2022/07/22 05:30:27;;;;;;;;;;;;;;;26.91;60.65;99838.53;4485787;32;20404;-89
2022/07/22 05:32:52;;;;;;;;;;;;;;;27.16;60.66;99842.31;4485868;32;19972;-89
2022/07/22 05:35:17;;;;;;;;;;;;;;;27.48;60.68;99839.94;4472563;32;20349;-89
2022/07/22 05:37:43;;;;;;;;;;;;;;;27.69;60.69;99839.63;4487091;32;19980;-89
2022/07/22 05:40:08;;;;;;;;;;;;;;;28.07;60.71;99845.53;4484278;32;19998;-89
2022/07/22 05:42:33;;;;;;;;;;;;;;;28.32;60.72;99846.53;4485743;32;20289;-89
2022/07/22 05:44:59;;;;;;;;;;;;;;;28.62;60.74;99837.94;4485310;32;22060;-90
2022/07/22 05:47:24;;;;;;;;;;;;;;;28.87;60.76;99840.72;4472076;32;23241;-90
2022/07/22 05:49:49;;;;;;;;;;;;;;;29.06;60.76;99843.09;4472684;32;19989;-89
2022/07/22 05:52:14;;;;;;;;;;;;;;;29.25;60.77;99840.09;4472146;32;21679;-90
2022/07/22 05:54:39;;;;;;;;;;;;;;;29.40;60.79;99842.13;4486503;32;23146;-89
2022/07/22 05:57:08;;;;;;;;;;;;;;;29.62;60.78;99849.53;4473566;32;20020;-90
2022/07/22 05:59:33;;;;;;;;;;;;;;;29.90;60.80;99847.28;4475630;32;20037;-90
2022/07/22 06:01:58;;;;;;;;;;;;;;;29.93;60.80;99838.91;4490497;31;20017;-89
2022/07/22 06:04:23;;;;;;;;;;;;;;;30.11;60.80;99836.03;4480337;32;20746;-89
2022/07/22 06:06:49;;;;;;;;;;;;;;;30.45;60.83;99827.66;4493172;32;20007;-91
2022/07/22 06:09:14;;;;;;;;;;;;;;;30.55;60.83;99823.78;4485823;32;20260;-91
2022/07/22 06:11:39;;;;;;;;;;;;;;;30.65;60.84;99834.31;4485067;32;19988;-91
2022/07/22 06:14:05;;;;;;;;;;;;;;;30.88;60.85;99833.53;4484657;32;21172;-92
2022/07/22 06:16:30;;;;;;;;;;;;;;;30.89;60.85;99830.66;4485312;32;19991;-91
2022/07/22 06:18:55;;;;;;;;;;;;;;;31.06;60.87;99836.75;4472098;32;20317;-91
2022/07/22 06:21:20;;;;;;;;;;;;;;;31.19;60.87;99838.88;4484785;32;20021;-92
2022/07/22 06:23:45;;;;;;;;;;;;;;;31.14;60.87;99837.53;4484939;32;20032;-92
2022/07/22 06:26:11;;;;;;;;;;;;;;;31.11;60.86;99837.06;4485943;32;19976;-92
2022/07/22 06:28:36;;;;;;;;;;;;;;;31.36;60.87;99830.50;4471796;32;19983;-92
2022/07/22 06:31:01;;;;;;;;;;;;;;;31.59;60.88;99827.78;4484729;32;19983;-92
2022/07/22 06:33:26;;;;;;;;;;;;;;;31.84;60.89;99831.09;4484899;32;20305;-91
2022/07/22 06:35:52;;;;;;;;;;;;;;;31.84;60.90;99828.41;4471403;32;19999;-93
2022/07/22 06:38:17;;;;;;;;;;;;;;;32.04;60.91;99829.53;4484810;32;20008;-92
2022/07/22 06:40:42;;;;;;;;;;;;;;;32.18;60.92;99835.94;4484641;32;20346;-92
2022/07/22 06:43:07;;;;;;;;;;;;;;;32.42;60.92;99839.41;4471327;32;19999;-92
2022/07/22 06:45:32;;;;;;;;;;;;;;;32.67;60.94;99838.88;4485825;32;19977;-91
2022/07/22 06:47:58;;;;;;;;;;;;;;;32.83;60.95;99834.28;4484400;32;20009;-91
2022/07/22 06:50:23;;;;;;;;;;;;;;;33.19;60.96;99831.56;4484423;32;20215;-91
2022/07/22 06:52:48;;;;;;;;;;;;;;;33.42;60.98;99828.69;4472695;32;20289;-91
2022/07/22 06:55:14;;;;;;;;;;;;;;;33.67;60.99;99821.84;4473294;32;19984;-92
2022/07/22 06:57:39;;;;;;;;;;;;;;;33.84;60.99;99825.94;4473310;32;19996;-92
2022/07/22 07:00:05;;;;;;;;;;;;;;;33.90;61.00;99818.06;4486505;32;20028;-92
2022/07/22 07:02:30;;;;;;;;;;;;;;;33.96;61.01;99811.88;4473380;32;20005;-91
2022/07/22 07:04:56;;;;;;;;;;;;;;;34.22;61.02;99811.16;4486175;32;20008;-91
2022/07/22 07:07:21;;;;;;;;;;;;;;;34.41;61.02;99818.56;4486563;32;19972;-91
2022/07/22 07:09:46;;;;;;;;;;;;;;;34.50;61.03;99811.13;4486421;32;19977;-91
2022/07/22 07:12:11;;;;;;;;;;;;;;;34.53;61.03;99811.53;4487562;32;20009;-91
2022/07/22 07:14:37;;;;;;;;;;;;;;;34.50;61.03;99819.22;4486430;32;20030;-91
2022/07/22 07:17:02;;;;;;;;;;;;;;;34.61;61.04;99808.66;4473400;32;19973;-91
2022/07/22 07:19:27;;;;;;;;;;;;;;;34.47;61.03;99802.37;4486385;32;19972;-91
2022/07/22 07:21:53;;;;;;;;;;;;;;;34.81;61.04;99808.72;4473253;32;19992;-91
2022/07/22 07:24:18;;;;;;;;;;;;;;;34.90;61.05;99799.41;4487756;31;20008;-91
2022/07/22 07:26:43;;;;;;;;;;;;;;;35.02;61.06;99808.59;4473308;32;19999;-91
2022/07/22 07:29:08;;;;;;;;;;;;;;;35.23;61.06;99809.41;4473239;32;20321;-91
2022/07/22 07:31:34;;;;;;;;;;;;;;;35.16;61.06;99809.44;4473205;32;19980;-92
2022/07/22 07:33:59;;;;;;;;;;;;;;;35.09;61.06;99805.88;4473429;32;20032;-91
2022/07/22 07:36:24;;;;;;;;;;;;;;;35.37;61.07;99801.16;4473092;32;19984;-91
2022/07/22 07:38:49;;;;;;;;;;;;;;;35.63;61.08;99805.69;4473469;32;20013;-91
2022/07/22 07:41:15;;;;;;;;;;;;;;;35.87;61.09;99800.69;4487186;32;20006;-91
2022/07/22 07:43:40;;;;;;;;;;;;;;;36.14;61.11;99794.16;4475621;32;20044;-91
2022/07/22 07:46:05;;;;;;;;;;;;;;;36.41;61.13;99796.78;4475901;32;19981;-91
2022/07/22 07:48:30;;;;;;;;;;;;;;;36.55;61.13;99804.66;4479126;32;19973;-91
2022/07/22 07:50:56;;;;;;;;;;;;;;;36.54;61.13;99802.16;4485418;32;20002;-91
2022/07/22 07:53:21;;;;;;;;;;;;;;;36.62;61.14;99809.19;4486569;32;20332;-91
2022/07/22 07:55:46;;;;;;;;;;;;;;;36.62;61.14;99796.47;4472919;32;19999;-91
2022/07/22 07:58:12;;;;;;;;;;;;;;;36.75;61.14;99795.56;4486111;32;20020;-91
2022/07/22 08:00:38;;;;;;;;;;;;;;;36.97;61.15;99796.91;4485953;32;20036;-91
2022/07/22 08:03:04;;;;;;;;;;;;;;;37.16;61.15;99798.66;4485319;32;19992;-91
2022/07/22 08:05:29;;;;;;;;;;;;;;;37.40;61.17;99796.19;4486013;32;20231;-90
2022/07/22 08:07:54;;;;;;;;;;;;;;;37.16;61.16;99797.84;4486028;32;20025;-91
2022/07/22 08:10:19;;;;;;;;;;;;;;;37.02;61.14;99804.41;4472745;32;19999;-91
2022/07/22 08:12:44;;;;;;;;;;;;;;;37.00;61.15;99793.75;4486020;32;20022;-91
2022/07/22 08:15:10;;;;;;;;;;;;;;;37.05;61.16;99798.53;4472300;32;19976;-91
2022/07/22 08:17:35;;;;;;;;;;;;;;;37.25;61.16;99792.94;4486150;32;20302;-92
2022/07/22 08:20:00;;;;;;;;;;;;;;;37.46;61.17;99788.00;4472694;32;20010;-91
2022/07/22 08:22:25;;;;;;;;;;;;;;;37.51;61.17;99786.47;4472261;32;22474;-91
2022/07/22 08:24:51;;;;;;;;;;;;;;;37.70;61.18;99788.19;4472578;32;19984;-91
2022/07/22 08:27:16;;;;;;;;;;;;;;;37.97;61.20;99778.72;4485854;32;19972;-92
2022/07/22 08:29:41;;;;;;;;;;;;;;;38.13;61.21;99780.00;4485740;32;20273;-91
2022/07/22 08:32:06;;;;;;;;;;;;;;;38.27;61.21;99780.69;4485889;32;20690;-91
2022/07/22 08:34:32;;;;;;;;;;;;;;;38.27;61.21;99781.50;4485871;31;19991;-92
2022/07/22 08:36:57;;;;;;;;;;;;;;;38.34;61.22;99778.72;4485820;32;19995;-92
2022/07/22 08:39:22;;;;;;;;;;;;;;;38.40;61.22;99780.53;4472481;32;20345;-91
2022/07/22 08:41:48;;;;;;;;;;;;;;;38.62;61.22;99780.84;4472668;32;20033;-92
2022/07/22 08:44:13;;;;;;;;;;;;;;;38.48;61.23;99782.91;4472548;32;20310;-92
2022/07/22 08:46:38;;;;;;;;;;;;;;;38.50;61.23;99786.22;4472548;32;20320;-92
2022/07/22 08:49:06;;;;;;;;;;;;;;;38.55;61.22;99780.94;4485736;32;20003;-91
2022/07/22 08:51:31;;;;;;;;;;;;;;;38.69;61.23;99789.78;4485658;32;20360;-92
2022/07/22 08:53:56;;;;;;;;;;;;;;;38.92;61.24;99778.13;4472293;32;19988;-92
2022/07/22 08:56:22;;;;;;;;;;;;;;;39.12;61.25;99786.84;4472436;32;19964;-92
2022/07/22 08:58:47;;;;;;;;;;;;;;;39.22;61.26;99784.38;4487059;32;20026;-92
2022/07/22 09:01:13;;;;;;;;;;;;;;;39.37;61.26;99786.63;4485792;32;19996;-91
2022/07/22 09:03:52;;;;;;;;;;;;;;;39.31;61.27;99782.13;4472628;32;20293;-91
2022/07/22 09:06:18;;;;;;;;;;;;;;;39.30;61.25;99777.75;4472647;32;20348;-92
2022/07/22 09:08:54;;;;;;;;;;;;;;;38.80;61.23;99779.97;4472628;32;20018;-92
2022/07/22 09:11:20;;;;;;;;;;;;;;;38.80;61.25;99785.41;4472417;32;20007;-91
2022/07/22 09:13:45;;;;;;;;;;;;;;;38.74;61.24;99775.47;4472576;32;19997;-92
2022/07/22 09:16:10;;;;;;;;;;;;;;;38.76;61.23;99773.34;4485209;32;19977;-92
2022/07/22 09:18:49;;;;;;;;;;;;;;;38.69;61.23;99768.00;4472693;32;20033;-92
2022/07/22 09:21:14;;;;;;;;;;;;;;;38.63;61.22;99772.50;4472882;32;19997;-91
2022/07/22 09:23:40;;;;;;;;;;;;;;;38.79;61.24;99764.72;4472994;32;20226;-92
2022/07/22 09:26:05;;;;;;;;;;;;;;;38.56;61.22;99760.81;4486385;32;19976;-92
2022/07/22 09:28:30;;;;;;;;;;;;;;;38.62;61.23;99759.94;4487237;32;20012;-92
2022/07/22 09:30:56;;;;;;;;;;;;;;;38.93;61.25;99764.28;4488807;32;20004;-92
2022/07/22 09:33:21;;;;;;;;;;;;;;;38.96;61.24;99768.44;4492142;31;19984;-91
2022/07/22 09:35:46;;;;;;;;;;;;;;;38.98;61.25;99761.69;4497233;32;19977;-92
2022/07/22 09:38:12;;;;;;;;;;;;;;;39.12;61.25;99766.97;4472305;32;20294;-92
2022/07/22 09:40:38;;;;;;;;;;;;;;;39.37;61.26;99758.56;4472322;32;20084;-92
2022/07/22 09:43:06;;;;;;;;;;;;;;;39.42;61.27;99761.41;4486204;32;19980;-92
2022/07/22 09:45:32;;;;;;;;;;;;;;;39.45;61.27;99750.03;4472216;32;19985;-92
2022/07/22 09:47:58;;;;;;;;;;;;;;;39.62;61.28;99756.47;4472046;32;20000;-92
2022/07/22 09:50:24;;;;;;;;;;;;;;;39.33;61.26;99758.22;4485323;32;19992;-92
2022/07/22 09:52:50;;;;;;;;;;;;;;;38.88;61.25;99761.44;4472007;32;19980;-92
2022/07/22 09:55:16;;;;;;;;;;;;;;;39.19;61.25;99756.78;4484611;32;19980;-92
2022/07/22 09:57:41;;;;;;;;;;;;;;;39.29;61.26;99751.59;4471951;32;20012;-92
2022/07/22 10:00:08;;;;;;;;;;;;;;;39.31;61.27;99748.63;4485048;32;19988;-91
2022/07/22 10:02:34;;;;;;;;;;;;;;;39.23;61.26;99749.78;4485526;32;20305;-92
2022/07/22 10:04:59;;;;;;;;;;;;;;;39.30;61.25;99742.34;4472449;32;19999;-92
2022/07/22 10:07:26;;;;;;;;;;;;;;;39.25;61.26;99743.03;4472286;32;20122;-92
2022/07/22 10:09:51;;;;;;;;;;;;;;;39.35;61.26;99742.47;4472374;32;20034;-92
2022/07/22 10:12:16;;;;;;;;;;;;;;;39.28;61.26;99748.03;4471806;32;20000;-93
2022/07/22 10:14:42;;;;;;;;;;;;;;;39.27;61.26;99740.91;4472019;32;19987;-92
2022/07/22 10:17:07;;;;;;;;;;;;;;;39.08;61.25;99741.28;4485195;32;20040;-92
2022/07/22 10:19:32;;;;;;;;;;;;;;;38.89;61.23;99740.50;4471683;32;23593;-92
2022/07/22 10:21:58;;;;;;;;;;;;;;;38.96;61.24;99735.75;4485026;32;19981;-92
2022/07/22 10:24:23;;;;;;;;;;;;;;;39.15;61.26;99731.09;4471630;32;20380;-92
2022/07/22 10:26:52;;;;;;;;;;;;;;;39.28;61.26;99730.88;4485851;32;20231;-92
2022/07/22 10:29:27;;;;;;;;;;;;;;;39.22;61.25;99726.34;4487106;32;20044;-92
2022/07/22 10:32:12;;;;;;;;;;;;;;;39.08;61.25;99733.94;4486882;32;19995;-93
2022/07/22 10:34:37;;;;;;;;;;;;;;;39.14;61.26;99727.53;4487096;32;20025;-92
2022/07/22 10:37:02;;;;;;;;;;;;;;;39.10;61.25;99726.37;4487106;32;20296;-92
2022/07/22 10:39:27;;;;;;;;;;;;;;;39.05;61.24;99728.94;4488263;32;20012;-92
2022/07/22 10:41:52;;;;;;;;;;;;;;;39.07;61.25;99726.00;4488309;32;20027;-92
2022/07/22 10:44:44;;;;;;;;;;;;;;;39.00;61.24;99721.44;4486945;32;20345;-92
2022/07/22 10:47:09;;;;;;;;;;;;;;;38.96;61.24;99714.00;4483102;32;20639;-92
2022/07/22 10:49:35;;;;;;;;;;;;;;;39.02;61.25;99714.94;4473848;32;19996;-92
2022/07/22 10:52:06;;;;;;;;;;;;;;;39.23;61.26;99712.50;4473646;32;20260;-92
2022/07/22 10:54:31;;;;;;;;;;;;;;;39.35;61.26;99712.50;4487111;32;20040;-92
2022/07/22 10:56:57;;;;;;;;;;;;;;;39.37;61.26;99710.38;4486747;32;20034;-91
2022/07/22 10:59:23;;;;;;;;;;;;;;;39.65;61.27;99706.09;4473156;32;28475;-92
2022/07/22 11:01:50;;;;;;;;;;;;;;;39.73;61.28;99712.00;4473874;32;19972;-92
2022/07/22 11:04:22;;;;;;;;;;;;;;;39.84;61.28;99702.16;4473705;32;20011;-92
2022/07/22 11:06:48;;;;;;;;;;;;;;;40.08;61.30;99697.50;4486646;32;20005;-92
2022/07/22 11:09:13;;;;;;;;;;;;;;;40.13;61.30;99692.12;4488350;31;19984;-91
2022/07/22 11:11:46;;;;;;;;;;;;;;;40.20;61.31;99688.19;4488181;31;19976;-92
2022/07/22 11:14:15;;;;;;;;;;;;;;;40.29;61.30;99696.00;4486957;32;19984;-92
2022/07/22 11:16:41;;;;;;;;;;;;;;;40.32;61.31;99693.59;4487125;32;20583;-92
2022/07/22 11:19:07;;;;;;;;;;;;;;;40.35;61.30;99690.38;4475356;32;19956;-91
2022/07/22 11:21:32;;;;;;;;;;;;;;;40.06;61.30;99688.72;4485633;32;19980;-92
2022/07/22 11:23:58;;;;;;;;;;;;;;;39.85;61.28;99687.47;4473964;32;20330;-91
2022/07/22 11:26:25;;;;;;;;;;;;;;;39.90;61.29;99685.66;4486777;32;20279;-92
2022/07/22 11:28:50;;;;;;;;;;;;;;;39.94;61.29;99686.00;4486811;32;19988;-91
2022/07/22 11:31:16;;;;;;;;;;;;;;;40.11;61.29;99676.00;4486252;32;20037;-92
2022/07/22 11:33:41;;;;;;;;;;;;;;;40.25;61.30;99676.56;4487840;31;19976;-91
2022/07/22 11:36:07;;;;;;;;;;;;;;;40.35;61.30;99682.19;4486345;31;19984;-91
2022/07/22 11:38:45;;;;;;;;;;;;;;;40.36;61.30;99677.56;4487992;31;20309;-91
2022/07/22 11:41:10;;;;;;;;;;;;;;;40.40;61.31;99670.56;4473631;32;19984;-92
2022/07/22 11:43:39;;;;;;;;;;;;;;;40.45;61.32;99671.47;4486676;32;19979;-92
2022/07/22 11:46:05;;;;;;;;;;;;;;;40.49;61.31;99664.47;4486769;32;20040;-91
2022/07/22 11:48:30;;;;;;;;;;;;;;;40.59;61.32;99660.25;4473387;32;20037;-89
2022/07/22 11:51:01;;;;;;;;;;;;;;;40.67;61.32;99666.13;4486116;32;25014;-89
2022/07/22 11:53:27;;;;;;;;;;;;;;;40.59;61.32;99665.72;4488084;31;19976;-89
2022/07/22 11:55:56;;;;;;;;;;;;;;;40.75;61.32;99646.62;4486445;32;19984;-89
2022/07/22 11:58:32;;;;;;;;;;;;;;;40.67;61.32;99652.47;4486518;32;20010;-89
2022/07/22 12:00:58;;;;;;;;;;;;;;;40.53;61.33;99658.53;4473280;32;20052;-88
2022/07/22 12:03:23;;;;;;;;;;;;;;;40.08;61.30;99645.69;4473159;32;19999;-89
2022/07/22 12:05:48;;;;;;;;;;;;;;;39.74;61.28;99648.25;4486009;32;23385;-90
2022/07/22 12:08:13;;;;;;;;;;;;;;;40.08;61.30;99645.69;4485893;32;24361;-89
2022/07/22 12:10:39;;;;;;;;;;;;;;;40.40;61.31;99638.66;4485990;32;19984;-89
2022/07/22 12:13:04;;;;;;;;;;;;;;;40.61;61.31;99639.00;4473277;32;20009;-89
2022/07/22 12:15:29;;;;;;;;;;;;;;;40.41;61.31;99634.84;4487221;32;20276;-89
2022/07/22 12:17:54;;;;;;;;;;;;;;;40.69;61.33;99625.75;4472949;32;20336;-89
2022/07/22 12:20:24;;;;;;;;;;;;;;;40.60;61.32;99626.44;4472845;32;19994;-89
2022/07/22 12:22:49;;;;;;;;;;;;;;;40.47;61.32;99622.16;4473289;32;20010;-91
2022/07/22 12:25:17;;;;;;;;;;;;;;;40.74;61.33;99614.94;4473108;32;19996;-90
2022/07/22 12:27:42;;;;;;;;;;;;;;;41.08;61.34;99609.47;4486426;32;20041;-90
2022/07/22 12:30:13;;;;;;;;;;;;;;;41.45;61.36;99601.53;4486314;32;20028;-91
2022/07/22 12:32:39;;;;;;;;;;;;;;;41.60;61.37;99609.88;4473145;32;19999;-90
2022/07/22 12:35:06;;;;;;;;;;;;;;;41.84;61.37;99602.25;4486133;32;20265;-92
2022/07/22 12:37:40;;;;;;;;;;;;;;;41.96;61.38;99602.13;4486714;32;20018;-91
2022/07/22 12:40:06;;;;;;;;;;;;;;;41.81;61.38;99599.22;4486335;32;19977;-90
2022/07/22 12:42:38;;;;;;;;;;;;;;;41.87;61.38;99590.81;4486858;32;19967;-90